Time;durP1;ratioP1;P1;durP2;ratioP2;P2;SDS_P1;SDS_P2;PMS_P1;PMS_P2;Temp;Humidity;BMP_temperature;BMP_pressure;BME280_temperature;BME280_humidity;BME280_pressure;Samples;Min_cycle;Max_cycle;Signal;HPM_P1;HPM_P2
2022/02/24 00:01:50;;;;;;;6.70;1.55;;;0.10;99.90;;;;;;4917373;29;20492;-77
2022/02/24 00:04:16;;;;;;;8.98;2.20;;;0.10;99.90;;;;;;4916798;29;20452;-77
2022/02/24 00:06:41;;;;;;;8.10;1.88;;;0.20;99.90;;;;;;4917674;29;20101;-77
2022/02/24 00:09:07;;;;;;;7.28;1.75;;;0.20;99.90;;;;;;4917802;29;20060;-76
2022/02/24 00:11:35;;;;;;;5.70;1.73;;;0.20;99.90;;;;;;4917622;29;20028;-78
2022/02/24 00:14:01;;;;;;;6.15;2.15;;;0.20;99.90;;;;;;4917702;29;20064;-77
2022/02/24 00:16:27;;;;;;;6.13;1.88;;;0.20;99.90;;;;;;4917866;29;20038;-77
2022/02/24 00:18:53;;;;;;;3.40;1.67;;;0.20;99.90;;;;;;4917657;29;20412;-77
2022/02/24 00:21:19;;;;;;;7.25;1.60;;;0.20;99.90;;;;;;4917713;29;20028;-77
2022/02/24 00:23:45;;;;;;;5.65;1.63;;;0.30;99.90;;;;;;4917570;29;20104;-77
2022/02/24 00:26:11;;;;;;;8.68;1.70;;;0.30;99.90;;;;;;4917457;29;20028;-77
2022/02/24 00:28:37;;;;;;;6.63;1.92;;;0.30;99.90;;;;;;4917621;29;20028;-77
2022/02/24 00:31:03;;;;;;;4.03;1.85;;;0.30;99.90;;;;;;4917369;29;20053;-77
2022/02/24 00:33:29;;;;;;;12.70;2.20;;;0.30;99.90;;;;;;4917655;29;20031;-77
2022/02/24 00:35:54;;;;;;;8.63;1.95;;;0.30;99.90;;;;;;4917218;29;20121;-77
2022/02/24 00:38:20;;;;;;;5.72;1.73;;;0.30;99.90;;;;;;4917096;29;20504;-77
2022/02/24 00:40:46;;;;;;;6.20;1.95;;;0.30;99.90;;;;;;4917181;29;20036;-77
2022/02/24 00:43:12;;;;;;;6.60;1.70;;;0.30;99.90;;;;;;4917590;29;20443;-77
2022/02/24 00:45:38;;;;;;;7.03;1.65;;;0.30;99.90;;;;;;4917109;29;20032;-78
2022/02/24 00:48:04;;;;;;;8.85;2.55;;;0.30;99.90;;;;;;4917055;29;20024;-77
2022/02/24 00:50:30;;;;;;;8.15;1.85;;;0.30;99.90;;;;;;4917190;29;20095;-77
2022/02/24 00:52:56;;;;;;;8.05;1.90;;;0.30;99.90;;;;;;4916891;29;20480;-77
2022/02/24 00:55:26;;;;;;;4.43;1.60;;;0.30;99.90;;;;;;4917225;29;20400;-79
2022/02/24 00:57:52;;;;;;;8.00;1.92;;;0.30;99.90;;;;;;4916680;29;20039;-77
2022/02/24 01:00:18;;;;;;;3.42;1.45;;;0.30;99.90;;;;;;4916875;29;20048;-80
2022/02/24 01:02:44;;;;;;;4.63;1.33;;;0.40;99.90;;;;;;4917092;29;20034;-79
2022/02/24 01:05:10;;;;;;;9.05;1.65;;;0.30;99.90;;;;;;4915981;29;20032;-79
2022/02/24 01:07:36;;;;;;;5.07;1.73;;;0.30;99.90;;;;;;4917396;29;20024;-79
2022/02/24 01:10:02;;;;;;;7.10;1.58;;;0.40;99.90;;;;;;4916648;29;20076;-77
2022/02/24 01:12:28;;;;;;;9.35;1.63;;;0.40;99.90;;;;;;4915987;29;20032;-78
2022/02/24 01:14:54;;;;;;;12.25;1.70;;;0.40;99.90;;;;;;4916509;29;20542;-78
2022/02/24 01:17:20;;;;;;;6.95;2.08;;;0.40;99.90;;;;;;4916666;29;20544;-77
2022/02/24 01:19:45;;;;;;;5.85;1.63;;;0.40;99.90;;;;;;4916717;29;20043;-78
2022/02/24 01:22:11;;;;;;;4.25;1.45;;;0.40;99.90;;;;;;4916654;29;20028;-79
2022/02/24 01:24:37;;;;;;;5.93;1.73;;;0.40;99.90;;;;;;4916410;29;20051;-78
2022/02/24 01:27:03;;;;;;;5.05;1.67;;;0.40;99.90;;;;;;4916322;29;20031;-75
2022/02/24 01:29:29;;;;;;;4.88;1.20;;;0.40;99.90;;;;;;4915240;29;20452;-77
2022/02/24 01:31:55;;;;;;;2.90;1.70;;;0.50;99.90;;;;;;4916573;29;20027;-78
2022/02/24 01:34:20;;;;;;;5.57;1.38;;;0.50;99.90;;;;;;4916254;29;20050;-77
2022/02/24 01:36:47;;;;;;;3.85;1.60;;;0.50;99.90;;;;;;4916111;29;20031;-76
2022/02/24 01:39:13;;;;;;;7.43;1.60;;;0.50;99.90;;;;;;4914729;29;20058;-76
2022/02/24 01:41:38;;;;;;;6.65;1.60;;;0.50;99.90;;;;;;4916159;29;20107;-76
2022/02/24 01:44:09;;;;;;;8.43;1.85;;;0.50;99.90;;;;;;4916093;29;20032;-76
2022/02/24 01:46:36;;;;;;;4.28;1.10;;;0.60;99.90;;;;;;4916380;29;20095;-76
2022/02/24 01:49:03;;;;;;;4.78;1.40;;;0.60;99.90;;;;;;4916116;29;20111;-76
2022/02/24 01:51:30;;;;;;;5.97;1.45;;;0.60;99.90;;;;;;4916511;29;20028;-79
2022/02/24 01:53:55;;;;;;;5.57;1.48;;;0.60;99.90;;;;;;4916442;29;20440;-79
2022/02/24 01:56:21;;;;;;;6.90;1.70;;;0.60;99.90;;;;;;4916166;29;20024;-77
2022/02/24 01:58:48;;;;;;;8.25;1.50;;;0.60;99.90;;;;;;4916182;29;20056;-77
2022/02/24 02:01:14;;;;;;;4.13;1.23;;;0.60;99.90;;;;;;4916348;29;20032;-77
2022/02/24 02:03:40;;;;;;;5.75;1.23;;;0.70;99.90;;;;;;4916105;29;20039;-77
2022/02/24 02:06:07;;;;;;;6.13;1.20;;;0.70;99.90;;;;;;4915838;29;20036;-75
2022/02/24 02:08:33;;;;;;;5.07;1.42;;;0.70;99.90;;;;;;4915865;29;20032;-75
2022/02/24 02:10:58;;;;;;;4.97;1.48;;;0.70;99.90;;;;;;4914592;29;20024;-76
2022/02/24 02:13:24;;;;;;;5.07;1.30;;;0.70;99.90;;;;;;4915869;29;20039;-79
2022/02/24 02:15:53;;;;;;;2.20;1.20;;;0.80;99.90;;;;;;4914697;29;20201;-79
2022/02/24 02:18:20;;;;;;;4.68;1.50;;;0.80;99.90;;;;;;4915921;29;20031;-78
2022/02/24 02:20:46;;;;;;;6.22;1.40;;;0.80;99.90;;;;;;4915674;29;20088;-77
2022/02/24 02:23:12;;;;;;;6.63;3.47;;;0.80;99.90;;;;;;4916100;29;20084;-77
2022/02/24 02:54:42;;;;;;;1.40;1.00;;;1.10;99.90;;;;;;4918139;29;20063;-76
2022/02/24 02:57:08;;;;;;;2.03;0.80;;;1.10;99.90;;;;;;4919182;29;20523;-76
2022/02/24 02:59:33;;;;;;;1.55;0.80;;;1.10;99.90;;;;;;4918747;29;20506;-76
2022/02/24 03:01:59;;;;;;;2.20;0.95;;;1.20;99.90;;;;;;4919303;29;20032;-76
2022/02/24 03:38:04;;;;;;;0.68;0.68;;;1.40;99.90;;;;;;5287350;23;20116;-75
2022/02/24 03:40:30;;;;;;;0.52;0.52;;;1.40;99.90;;;;;;4956353;29;20039;-75
2022/02/24 03:42:56;;;;;;;0.50;0.50;;;1.50;99.90;;;;;;4956669;28;20390;-75
2022/02/24 03:45:22;;;;;;;0.60;0.60;;;1.50;99.90;;;;;;4956164;29;20418;-75
2022/02/24 03:47:47;;;;;;;0.60;0.60;;;1.50;99.90;;;;;;4956249;28;20027;-75
2022/02/24 03:50:13;;;;;;;0.60;0.60;;;1.50;99.90;;;;;;4956107;29;20450;-75
2022/02/24 03:52:39;;;;;;;1.73;0.73;;;1.50;99.90;;;;;;4956069;29;20023;-75
2022/02/24 03:55:06;;;;;;;2.65;0.50;;;1.50;99.90;;;;;;4956306;28;20028;-75
2022/02/24 03:57:32;;;;;;;1.13;0.65;;;1.60;99.90;;;;;;4956023;28;20019;-75
2022/02/24 03:59:58;;;;;;;0.60;0.60;;;1.60;99.90;;;;;;4956017;28;20035;-75
2022/02/24 04:02:23;;;;;;;0.65;0.65;;;1.60;99.90;;;;;;4956039;29;20027;-76
2022/02/24 04:04:49;;;;;;;1.20;0.70;;;1.60;99.90;;;;;;4956154;29;20049;-77
2022/02/24 04:07:15;;;;;;;1.45;0.70;;;1.60;99.90;;;;;;4956212;29;20082;-78
2022/02/24 04:09:40;;;;;;;0.70;0.70;;;1.60;99.90;;;;;;4956177;29;20031;-78
2022/02/24 04:12:07;;;;;;;3.05;1.30;;;1.60;99.90;;;;;;4955899;29;20031;-77
2022/02/24 04:14:33;;;;;;;2.35;0.80;;;1.60;99.90;;;;;;4956333;28;20101;-77
2022/02/24 04:16:59;;;;;;;2.20;0.90;;;1.60;99.90;;;;;;4956140;29;20396;-78
2022/02/24 04:19:26;;;;;;;1.35;0.70;;;1.60;99.90;;;;;;4955933;28;20399;-80
2022/02/24 04:21:51;;;;;;;1.58;0.95;;;1.60;99.90;;;;;;4955858;28;20027;-80
2022/02/24 04:24:17;;;;;;;4.28;1.05;;;1.60;99.90;;;;;;4955628;28;20023;-77
2022/02/24 04:26:43;;;;;;;2.85;0.82;;;1.60;99.90;;;;;;4956092;29;20038;-78
2022/02/24 04:29:09;;;;;;;3.47;0.85;;;1.60;99.90;;;;;;4955578;28;20545;-78
2022/02/24 04:31:34;;;;;;;2.55;1.00;;;1.70;99.90;;;;;;4955709;28;20023;-78
2022/02/24 04:34:00;;;;;;;4.97;1.20;;;1.70;99.90;;;;;;4955557;29;20078;-77
2022/02/24 04:36:26;;;;;;;5.50;1.13;;;1.70;99.90;;;;;;4955459;29;20027;-77
2022/02/24 04:38:51;;;;;;;3.50;1.20;;;1.70;99.90;;;;;;4955178;28;20055;-77
2022/02/24 04:41:17;;;;;;;3.50;1.38;;;1.70;99.90;;;;;;4955400;29;20038;-77
2022/02/24 04:43:43;;;;;;;8.05;1.50;;;1.70;99.90;;;;;;4955692;29;20046;-78
2022/02/24 04:46:08;;;;;;;2.08;1.00;;;1.70;99.90;;;;;;4955161;29;20023;-77
2022/02/24 04:48:34;;;;;;;7.55;1.67;;;1.70;99.90;;;;;;4955160;28;20027;-77
2022/02/24 04:51:00;;;;;;;4.30;1.08;;;1.70;99.90;;;;;;4953959;29;20114;-77
2022/02/24 04:53:57;;;;;;;5.47;1.40;;;1.70;99.90;;;;;;4955593;29;20073;-77
2022/02/24 04:56:24;;;;;;;5.13;1.30;;;1.70;99.90;;;;;;4955462;28;20034;-77
2022/02/24 04:58:50;;;;;;;3.53;1.60;;;1.70;99.90;;;;;;4955064;28;20078;-77
2022/02/24 05:01:15;;;;;;;5.72;1.42;;;1.80;99.90;;;;;;4953779;29;20091;-77
2022/02/24 05:03:41;;;;;;;8.18;1.83;;;1.80;99.90;;;;;;4955146;28;20097;-77
2022/02/24 05:06:07;;;;;;;4.55;2.13;;;1.80;99.90;;;;;;4954678;29;20030;-79
2022/02/24 05:08:33;;;;;;;5.28;1.80;;;1.80;99.90;;;;;;4955061;29;20031;-77
2022/02/24 05:10:58;;;;;;;3.78;1.38;;;1.80;99.90;;;;;;4954778;29;20380;-78
2022/02/24 05:13:24;;;;;;;4.63;1.50;;;1.80;99.90;;;;;;4954574;29;20054;-78
2022/02/24 05:15:50;;;;;;;9.32;1.88;;;1.90;99.90;;;;;;4954768;28;20042;-77
2022/02/24 05:18:15;;;;;;;9.20;1.98;;;1.90;99.90;;;;;;4954698;28;20038;-76
2022/02/24 05:20:47;;;;;;;9.32;3.05;;;1.90;99.90;;;;;;4954594;29;20496;-77
2022/02/24 05:26:03;;;;;;;8.73;2.10;;;1.90;99.90;;;;;;4954752;29;20034;-78
2022/02/24 05:28:29;;;;;;;5.70;1.73;;;1.90;99.90;;;;;;4954521;28;20475;-75
2022/02/24 05:30:59;;;;;;;12.82;2.38;;;1.90;99.90;;;;;;4954347;29;20042;-74
2022/02/24 05:33:29;;;;;;;12.93;2.47;;;1.90;99.90;;;;;;4954265;28;20034;-70
2022/02/24 05:35:55;;;;;;;10.98;2.47;;;1.90;99.90;;;;;;4954313;28;20268;-73
2022/02/24 05:38:22;;;;;;;8.75;2.05;;;1.90;99.90;;;;;;4953823;28;20062;-76
2022/02/24 05:40:48;;;;;;;4.20;1.80;;;2.00;99.90;;;;;;4954058;28;20051;-75
2022/02/24 05:43:14;;;;;;;8.65;2.00;;;2.10;99.90;;;;;;4942127;28;20177;-72
2022/02/24 05:45:41;;;;;;;10.35;2.58;;;2.30;99.90;;;;;;4934817;29;20023;-72
2022/02/24 05:48:07;;;;;;;14.98;2.70;;;2.30;99.90;;;;;;4931511;29;20024;-75
2022/02/24 05:50:32;;;;;;;8.27;2.30;;;2.20;99.90;;;;;;4923919;29;20494;-72
2022/02/24 05:53:02;;;;;;;9.57;2.78;;;2.20;99.90;;;;;;4923994;29;20558;-72
2022/02/24 05:55:32;;;;;;;11.05;2.88;;;2.20;99.90;;;;;;4925577;29;20028;-77
2022/02/24 05:57:58;;;;;;;13.80;2.63;;;2.10;99.90;;;;;;4924041;29;20028;-73
2022/02/24 06:00:23;;;;;;;9.90;2.30;;;2.10;99.90;;;;;;4925020;29;20401;-73
2022/02/24 06:02:49;;;;;;;10.50;2.28;;;2.10;99.90;;;;;;4915656;29;20106;-73
2022/02/24 06:05:16;;;;;;;8.38;2.45;;;2.10;99.90;;;;;;4915891;29;20036;-73
2022/02/24 06:07:43;;;;;;;8.13;2.67;;;2.10;99.90;;;;;;4923609;29;20042;-73
2022/02/24 06:10:10;;;;;;;11.70;2.65;;;2.10;99.90;;;;;;4924152;29;20117;-73
2022/02/24 06:12:36;;;;;;;8.70;2.13;;;2.10;99.90;;;;;;4925949;29;20019;-73
2022/02/24 06:15:03;;;;;;;14.18;2.33;;;2.10;99.90;;;;;;4925387;29;20221;-73
2022/02/24 06:17:29;;;;;;;8.07;1.83;;;2.10;99.90;;;;;;4925198;29;20796;-72
2022/02/24 06:19:55;;;;;;;10.40;2.15;;;2.10;99.90;;;;;;4920469;29;20055;-72
2022/02/24 06:22:21;;;;;;;4.88;1.70;;;2.20;99.90;;;;;;4932428;29;20023;-72
2022/02/24 06:24:47;;;;;;;10.25;2.30;;;2.20;99.90;;;;;;4934769;29;20031;-79
2022/02/24 06:27:13;;;;;;;7.60;1.90;;;2.20;99.90;;;;;;4934693;29;20030;-75
2022/02/24 06:29:38;;;;;;;8.55;2.38;;;2.20;99.90;;;;;;4933612;29;20043;-76
2022/02/24 06:32:04;;;;;;;10.82;1.65;;;2.60;99.90;;;;;;4934939;29;20520;-76
2022/02/24 06:34:30;;;;;;;7.15;1.40;;;3.30;99.90;;;;;;4934661;29;20039;-75
2022/02/24 06:36:57;;;;;;;7.25;1.95;;;3.90;99.90;;;;;;4934633;29;20048;-73
2022/02/24 06:39:22;;;;;;;4.22;1.63;;;4.10;99.90;;;;;;4934365;29;20090;-73
2022/02/24 06:41:48;;;;;;;7.22;1.70;;;3.70;99.90;;;;;;4934717;29;20031;-73
2022/02/24 06:44:14;;;;;;;8.13;1.70;;;3.30;99.90;;;;;;4934076;29;20365;-73
2022/02/24 06:46:40;;;;;;;5.93;2.00;;;3.00;99.90;;;;;;4934713;29;20107;-73
2022/02/24 06:49:06;;;;;;;13.43;2.13;;;2.80;99.90;;;;;;4934731;29;20035;-73
2022/02/24 06:51:32;;;;;;;6.65;1.65;;;2.70;99.90;;;;;;4934301;29;20024;-73
2022/02/24 06:53:58;;;;;;;10.93;1.70;;;2.50;99.90;;;;;;4931905;29;20028;-73
2022/02/24 06:56:24;;;;;;;27.23;2.15;;;2.40;99.90;;;;;;4930571;29;20106;-73
2022/02/24 06:58:51;;;;;;;4.72;1.45;;;2.40;99.90;;;;;;4917907;29;20028;-73
2022/02/24 07:01:17;;;;;;;6.50;1.50;;;2.40;99.90;;;;;;4915443;29;20063;-73
2022/02/24 07:03:43;;;;;;;8.57;2.35;;;2.30;99.90;;;;;;4915190;29;20059;-73
2022/02/24 07:06:10;;;;;;;3.08;1.20;;;2.30;99.90;;;;;;4915262;29;20020;-73
2022/02/24 07:08:36;;;;;;;4.90;1.38;;;2.50;99.90;;;;;;4915343;29;20024;-74
2022/02/24 07:11:05;;;;;;;3.38;1.23;;;3.10;99.90;;;;;;4915973;29;20028;-73
2022/02/24 07:13:30;;;;;;;3.17;1.52;;;3.00;99.90;;;;;;4918596;29;20467;-74
2022/02/24 07:15:56;;;;;;;5.55;1.38;;;3.00;99.90;;;;;;4918678;29;20064;-74
2022/02/24 07:18:22;;;;;;;4.18;1.80;;;2.90;99.90;;;;;;4918447;29;20024;-73
2022/02/24 07:20:48;;;;;;;1.10;1.00;;;2.70;99.90;;;;;;4918773;29;20039;-74
2022/02/24 07:23:14;;;;;;;2.67;1.02;;;2.60;99.90;;;;;;4918379;29;20028;-73
2022/02/24 07:25:41;;;;;;;2.38;1.33;;;2.50;99.90;;;;;;4918827;29;20086;-75
2022/02/24 07:28:07;;;;;;;4.25;1.20;;;2.50;99.90;;;;;;4918674;29;20107;-75
2022/02/24 07:30:36;;;;;;;5.07;1.20;;;2.40;99.90;;;;;;4918347;29;20701;-74
2022/02/24 07:33:02;;;;;;;4.95;1.13;;;2.40;99.90;;;;;;4918306;29;20110;-73
2022/02/24 07:35:28;;;;;;;2.85;1.17;;;2.40;99.90;;;;;;4918239;29;20107;-76
2022/02/24 07:37:54;;;;;;;2.22;1.17;;;2.50;99.90;;;;;;4918809;29;20052;-74
2022/02/24 07:40:20;;;;;;;1.80;0.90;;;2.50;99.90;;;;;;4927144;29;20514;-72
2022/02/24 07:42:46;;;;;;;1.42;0.93;;;2.50;99.90;;;;;;4925655;29;20432;-75
2022/02/24 07:45:12;;;;;;;2.63;1.00;;;2.50;99.90;;;;;;4924799;29;20040;-75
2022/02/24 07:47:38;;;;;;;1.35;0.80;;;2.50;99.90;;;;;;4936187;29;20399;-73
2022/02/24 07:50:05;;;;;;;6.18;1.00;;;2.50;99.90;;;;;;4936184;29;20510;-71
2022/02/24 07:52:30;;;;;;;5.20;1.13;;;2.40;99.90;;;;;;4936612;29;20075;-71
2022/02/24 07:54:56;;;;;;;2.08;1.02;;;2.40;99.90;;;;;;4931360;29;20440;-69
2022/02/24 07:57:22;;;;;;;6.28;1.00;;;2.40;99.90;;;;;;4915815;29;20051;-75
2022/02/24 07:59:48;;;;;;;11.75;1.05;;;2.40;99.90;;;;;;4917257;29;20519;-72
2022/02/24 08:02:14;;;;;;;6.22;1.00;;;2.50;99.90;;;;;;4933150;29;20039;-71
2022/02/24 08:04:40;;;;;;;2.83;0.90;;;3.10;99.90;;;;;;4936389;29;20024;-72
2022/02/24 08:07:05;;;;;;;1.45;0.70;;;3.70;99.90;;;;;;4935874;29;20027;-74
2022/02/24 08:09:31;;;;;;;3.38;1.00;;;4.20;99.90;;;;;;4936091;29;20046;-73
2022/02/24 08:14:41;;;;;;;3.28;1.35;;;4.80;99.90;;;;;;4919061;29;20042;-72
2022/02/24 08:17:07;;;;;;;5.75;1.00;;;5.10;99.90;;;;;;4928722;29;20122;-73
2022/02/24 08:19:34;;;;;;;2.13;0.95;;;5.90;99.90;;;;;;4934093;29;20036;-73
2022/02/24 08:22:00;;;;;;;7.72;1.08;;;6.10;99.90;;;;;;4934548;29;20043;-71
2022/02/24 08:24:26;;;;;;;2.42;1.00;;;6.10;99.90;;;;;;4935824;29;20479;-69
2022/02/24 08:26:52;;;;;;;0.93;0.88;;;6.10;99.90;;;;;;4935898;29;20024;-69
2022/02/24 08:29:19;;;;;;;1.08;0.98;;;6.10;99.90;;;;;;4932634;29;20016;-69
2022/02/24 08:31:44;;;;;;;1.30;0.80;;;6.10;99.90;;;;;;4921772;29;20042;-68
2022/02/24 08:34:10;;;;;;;0.80;0.80;;;6.10;99.90;;;;;;4917041;29;20095;-73
2022/02/24 08:36:36;;;;;;;2.45;1.00;;;6.20;99.90;;;;;;4916515;29;20539;-70
2022/02/24 08:39:05;;;;;;;2.55;0.88;;;6.20;99.90;;;;;;4916664;29;20032;-72
2022/02/24 08:41:33;;;;;;;0.95;0.80;;;6.20;99.90;;;;;;4916621;29;20031;-72
2022/02/24 08:43:59;;;;;;;1.13;0.80;;;6.30;99.90;;;;;;4916733;29;20068;-70
2022/02/24 08:46:25;;;;;;;1.63;0.90;;;6.30;99.90;;;;;;4923900;29;20118;-71
2022/02/24 08:48:50;;;;;;;0.65;0.63;;;6.40;99.90;;;;;;4934966;29;20038;-71
2022/02/24 08:51:16;;;;;;;0.63;0.63;;;6.40;99.90;;;;;;4935443;29;20028;-71
2022/02/24 08:53:43;;;;;;;0.80;0.75;;;6.40;99.90;;;;;;4935389;29;20027;-67
2022/02/24 08:56:08;;;;;;;2.55;0.70;;;6.40;99.90;;;;;;4935364;29;20174;-65
2022/02/24 08:58:34;;;;;;;0.85;0.70;;;6.00;99.90;;;;;;4936029;29;20466;-64
2022/02/24 09:01:00;;;;;;;0.93;0.60;;;5.40;99.90;;;;;;4935425;29;20043;-65
2022/02/24 09:03:25;;;;;;;1.13;0.70;;;4.90;99.90;;;;;;4934979;29;20031;-67
2022/02/24 09:05:51;;;;;;;0.60;0.60;;;4.50;99.90;;;;;;4935208;29;20078;-67
2022/02/24 09:08:17;;;;;;;0.52;0.52;;;4.20;99.90;;;;;;4934941;29;20055;-66
2022/02/24 09:10:42;;;;;;;0.70;0.70;;;4.00;99.90;;;;;;4935061;29;20028;-66
2022/02/24 09:13:08;;;;;;;1.80;0.80;;;3.80;99.90;;;;;;4934819;29;20051;-66
2022/02/24 09:15:35;;;;;;;2.17;0.70;;;3.70;99.90;;;;;;4934822;29;20042;-67
2022/02/24 09:18:03;;;;;;;0.65;0.65;;;3.60;99.90;;;;;;4935116;29;20098;-67
2022/02/24 09:20:32;;;;;;;1.58;0.80;;;3.50;99.90;;;;;;4933121;29;20035;-67
2022/02/24 09:22:58;;;;;;;1.85;0.70;;;3.50;99.90;;;;;;4934827;29;20028;-66
2022/02/24 09:25:24;;;;;;;0.50;0.50;;;3.50;99.90;;;;;;4934491;29;20046;-67
2022/02/24 09:27:50;;;;;;;0.60;0.60;;;3.40;99.90;;;;;;4934333;29;20106;-67
2022/02/24 09:30:16;;;;;;;0.40;0.40;;;3.40;99.90;;;;;;4934298;29;20118;-67
2022/02/24 09:32:43;;;;;;;0.68;0.52;;;3.30;99.90;;;;;;4935027;29;20046;-67
2022/02/24 09:35:11;;;;;;;1.55;0.60;;;3.20;99.90;;;;;;4934431;29;20038;-67
2022/02/24 09:37:37;;;;;;;0.75;0.55;;;3.20;99.90;;;;;;4934376;29;20566;-67
2022/02/24 09:40:08;;;;;;;0.50;0.50;;;3.20;99.90;;;;;;4934835;29;20040;-67
2022/02/24 09:42:36;;;;;;;1.52;0.60;;;3.20;99.90;;;;;;4934343;29;20027;-67
2022/02/24 09:45:04;;;;;;;0.75;0.70;;;3.30;99.90;;;;;;4934748;29;20146;-68
2022/02/24 09:47:31;;;;;;;2.88;0.80;;;3.60;99.90;;;;;;4933899;29;20061;-68
2022/02/24 09:50:01;;;;;;;2.15;0.80;;;3.60;99.90;;;;;;4934890;29;20031;-69
2022/02/24 09:52:27;;;;;;;1.75;0.90;;;3.60;99.90;;;;;;4934827;29;20032;-68
2022/02/24 09:54:53;;;;;;;3.65;0.90;;;3.50;99.90;;;;;;4934897;29;20075;-69
2022/02/24 09:57:18;;;;;;;1.55;1.10;;;3.50;99.90;;;;;;4934787;29;20031;-68
2022/02/24 09:59:44;;;;;;;2.00;1.05;;;3.50;99.90;;;;;;4934652;29;20032;-68
2022/02/24 10:02:12;;;;;;;1.45;1.10;;;3.40;99.90;;;;;;4934848;29;20565;-70
2022/02/24 10:04:58;;;;;;;2.08;0.95;;;3.40;99.90;;;;;;4922999;29;20036;-74
2022/02/24 10:07:24;;;;;;;1.73;1.10;;;3.30;99.90;;;;;;4928770;29;20118;-70
2022/02/24 10:09:50;;;;;;;2.17;0.98;;;3.20;99.90;;;;;;4921188;29;20032;-70
2022/02/24 10:12:17;;;;;;;2.75;1.23;;;3.10;99.90;;;;;;4928172;29;20035;-69
2022/02/24 10:14:43;;;;;;;3.58;1.17;;;3.00;99.90;;;;;;4934375;29;20032;-70
2022/02/24 10:17:09;;;;;;;2.15;1.00;;;3.10;99.90;;;;;;4926964;29;20403;-70
2022/02/24 10:19:46;;;;;;;1.42;0.90;;;3.00;99.90;;;;;;4927120;29;20036;-70
2022/02/24 10:22:26;;;;;;;4.93;1.10;;;3.00;99.90;;;;;;4927343;29;20138;-70
2022/02/24 10:24:57;;;;;;;6.40;1.30;;;3.00;99.90;;;;;;4934393;29;20023;-69
2022/02/24 10:27:27;;;;;;;4.72;1.92;;;3.00;99.90;;;;;;4934418;29;20411;-70
2022/02/24 10:30:13;;;;;;;2.92;1.65;;;3.00;99.90;;;;;;4934412;29;20027;-69
2022/02/24 10:32:42;;;;;;;2.17;1.30;;;3.10;99.90;;;;;;4934596;29;20035;-69
2022/02/24 10:35:34;;;;;;;3.25;1.30;;;3.10;99.90;;;;;;4934288;29;20506;-69
2022/02/24 10:38:08;;;;;;;2.45;1.35;;;3.20;99.90;;;;;;4930066;29;20052;-69
2022/02/24 10:40:42;;;;;;;4.30;1.40;;;3.20;99.90;;;;;;4927173;29;20060;-69
2022/02/24 10:43:09;;;;;;;2.47;1.50;;;3.30;99.90;;;;;;4915341;29;20021;-69
2022/02/24 10:45:35;;;;;;;3.78;1.40;;;3.40;99.90;;;;;;4916728;29;20542;-69
2022/02/24 10:48:02;;;;;;;3.97;1.40;;;3.40;99.90;;;;;;4919102;29;20067;-69
2022/02/24 10:51:06;;;;;;;5.00;1.30;;;3.40;99.90;;;;;;4919237;29;20067;-68
2022/02/24 10:53:33;;;;;;;3.22;1.13;;;3.50;99.90;;;;;;4919007;29;20028;-68
2022/02/24 10:56:07;;;;;;;2.28;1.42;;;3.40;99.90;;;;;;4919071;29;20035;-68
2022/02/24 10:58:36;;;;;;;2.47;1.30;;;3.40;99.90;;;;;;4918704;29;20480;-68
2022/02/24 11:01:11;;;;;;;5.03;1.33;;;3.30;99.90;;;;;;4918844;29;20036;-66
2022/02/24 11:03:39;;;;;;;4.55;1.10;;;3.30;99.90;;;;;;4918952;29;20508;-70
2022/02/24 11:06:06;;;;;;;4.05;1.15;;;3.40;99.90;;;;;;4918732;29;20376;-70
2022/02/24 11:08:33;;;;;;;1.48;0.93;;;3.30;99.90;;;;;;4918711;29;20035;-71
2022/02/24 11:10:59;;;;;;;2.17;0.80;;;3.30;99.90;;;;;;4918989;29;20032;-71
2022/02/24 11:13:30;;;;;;;1.48;0.80;;;3.40;99.90;;;;;;4917604;29;20064;-71
2022/02/24 11:15:59;;;;;;;;;;;3.40;99.90;;;;;;4919038;29;20483;-71
2022/02/24 11:18:25;;;;;;;4.68;0.90;;;3.30;99.90;;;;;;4918427;29;19907;-70
2022/02/24 11:20:52;;;;;;;2.35;1.00;;;3.30;99.90;;;;;;4918355;29;20036;-70
2022/02/24 11:23:19;;;;;;;3.53;0.95;;;3.30;99.90;;;;;;4918462;29;20036;-70
2022/02/24 11:26:08;;;;;;;3.08;0.98;;;3.30;99.90;;;;;;4918328;29;20566;-70
2022/02/24 11:28:43;;;;;;;2.17;0.90;;;3.30;99.90;;;;;;4918655;29;20020;-70
2022/02/24 11:31:23;;;;;;;1.92;0.73;;;3.40;99.90;;;;;;4918332;29;20048;-70
2022/02/24 11:33:50;;;;;;;;;;;3.40;99.90;;;;;;4917573;29;20083;-70
2022/02/24 11:36:16;;;;;;;3.03;1.27;;;3.30;99.90;;;;;;4918120;29;19955;-70
2022/02/24 11:39:08;;;;;;;2.22;1.17;;;3.30;99.90;;;;;;4917864;29;20067;-70
2022/02/24 11:41:45;;;;;;;0.68;0.68;;;3.40;99.90;;;;;;4918100;29;20052;-70
2022/02/24 11:44:38;;;;;;;1.10;0.70;;;3.40;99.90;;;;;;4918148;29;20028;-70
2022/02/24 11:47:09;;;;;;;0.98;0.80;;;3.40;99.90;;;;;;4918094;29;20024;-68
2022/02/24 11:49:53;;;;;;;1.60;0.90;;;3.40;99.90;;;;;;4917717;29;20024;-69
2022/02/24 11:52:31;;;;;;;2.17;0.90;;;3.50;99.90;;;;;;4917875;29;20048;-68
2022/02/24 11:54:58;;;;;;;0.95;0.73;;;3.60;99.90;;;;;;4917759;29;20047;-68
2022/02/24 11:57:29;;;;;;;3.33;0.90;;;3.60;99.90;;;;;;4917281;29;20032;-71
2022/02/24 12:00:17;;;;;;;1.77;0.82;;;3.60;99.90;;;;;;4917597;29;20031;-74
2022/02/24 12:02:49;;;;;;;2.58;0.70;;;3.60;99.90;;;;;;4917931;29;20056;-70
2022/02/24 12:05:23;;;;;;;1.17;0.65;;;3.70;99.90;;;;;;4917838;29;20391;-70
2022/02/24 12:08:09;;;;;;;0.70;0.70;;;4.60;99.90;;;;;;4918155;29;20032;-70
2022/02/24 12:11:01;;;;;;;1.70;0.70;;;4.60;99.90;;;;;;4917701;29;20099;-70
2022/02/24 12:13:30;;;;;;;0.70;0.60;;;4.40;99.90;;;;;;4915784;29;20042;-70
2022/02/24 12:16:19;;;;;;;1.50;0.73;;;4.30;99.90;;;;;;4917801;29;20484;-70
2022/02/24 12:18:46;;;;;;;0.70;0.70;;;4.10;99.90;;;;;;4917294;29;20507;-70
2022/02/24 12:21:32;;;;;;;2.80;0.80;;;4.00;99.90;;;;;;4917229;29;20497;-70
2022/02/24 12:23:59;;;;;;;1.00;0.68;;;3.90;99.90;;;;;;4917320;29;20024;-70
2022/02/24 12:26:50;;;;;;;2.10;0.68;;;3.90;99.90;;;;;;4917627;29;20035;-70
2022/02/24 12:29:42;;;;;;;0.88;0.75;;;3.80;99.90;;;;;;4917433;29;20059;-70
2022/02/24 12:32:10;;;;;;;0.93;0.80;;;3.80;99.90;;;;;;4916203;29;20032;-70
2022/02/24 12:34:36;;;;;;;0.70;0.70;;;3.70;99.90;;;;;;4917162;29;20027;-70
2022/02/24 12:37:07;;;;;;;1.95;0.70;;;3.70;99.90;;;;;;4917027;29;20044;-70
2022/02/24 12:39:34;;;;;;;0.70;0.70;;;3.70;99.90;;;;;;4917303;29;20028;-70
2022/02/24 12:42:05;;;;;;;2.47;0.80;;;3.70;99.90;;;;;;4917148;29;20039;-71
2022/02/24 12:44:31;;;;;;;1.15;0.60;;;3.70;99.90;;;;;;4916941;29;20028;-70
2022/02/24 12:46:58;;;;;;;0.55;0.50;;;3.70;99.90;;;;;;4916674;29;20043;-70
2022/02/24 12:49:25;;;;;;;1.38;0.60;;;3.70;99.90;;;;;;4916670;29;20028;-70
2022/02/24 12:51:58;;;;;;;4.97;0.80;;;3.60;99.90;;;;;;4915186;29;20036;-69
2022/02/24 12:54:26;;;;;;;1.88;0.80;;;3.80;99.90;;;;;;4916400;29;20016;-67
2022/02/24 12:56:52;;;;;;;3.95;0.80;;;3.90;99.90;;;;;;4922506;29;20426;-68
2022/02/24 12:59:19;;;;;;;1.48;0.85;;;3.90;99.90;;;;;;4934672;29;20581;-68
2022/02/24 13:01:52;;;;;;;0.60;0.60;;;3.90;99.90;;;;;;4934946;29;20047;-63
2022/02/24 13:04:18;;;;;;;2.90;0.88;;;3.80;99.90;;;;;;4935019;29;20106;-69
2022/02/24 13:06:46;;;;;;;2.30;0.70;;;3.80;99.90;;;;;;4934864;29;20428;-70
2022/02/24 13:12:06;;;;;;;3.63;0.60;;;4.90;99.90;;;;;;4935560;29;20030;-69
2022/02/24 13:14:33;;;;;;;2.25;0.85;;;4.90;99.90;;;;;;4935437;29;20035;-69
2022/02/24 13:16:59;;;;;;;2.67;0.70;;;4.50;99.90;;;;;;4935481;29;20114;-69
2022/02/24 13:19:26;;;;;;;0.82;0.70;;;4.30;99.90;;;;;;4935246;29;20167;-71
2022/02/24 13:21:56;;;;;;;1.50;0.70;;;4.10;99.90;;;;;;4935837;29;20035;-69
2022/02/24 13:24:23;;;;;;;;;;;4.00;99.90;;;;;;4935819;29;20016;-69
2022/02/24 13:26:49;;;;;;;4.10;0.70;;;3.90;99.90;;;;;;4935373;29;20362;-69
2022/02/24 13:29:19;;;;;;;1.58;0.73;;;3.80;99.90;;;;;;4935448;29;20124;-69
2022/02/24 13:31:45;;;;;;;3.22;0.80;;;3.90;99.90;;;;;;4935285;29;20312;-69
2022/02/24 13:34:12;;;;;;;3.03;0.80;;;4.00;99.90;;;;;;4935332;29;20502;-70
2022/02/24 13:36:38;;;;;;;0.75;0.70;;;3.90;99.90;;;;;;4935248;29;20435;-70
2022/02/24 13:39:04;;;;;;;2.53;0.70;;;3.80;99.90;;;;;;4935555;29;20028;-69
2022/02/24 13:41:30;;;;;;;1.23;0.60;;;3.70;99.90;;;;;;4933729;29;20116;-67
2022/02/24 13:43:59;;;;;;;1.08;0.77;;;3.70;99.90;;;;;;4935146;29;20072;-68
2022/02/24 13:46:39;;;;;;;3.25;0.90;;;3.90;99.90;;;;;;4934997;29;20047;-68
2022/02/24 13:49:09;;;;;;;2.83;0.80;;;3.80;99.90;;;;;;4935000;29;20079;-68
2022/02/24 13:51:36;;;;;;;1.20;0.70;;;4.10;99.90;;;;;;4934923;29;20035;-67
2022/02/24 13:54:02;;;;;;;3.10;1.67;;;4.50;99.90;;;;;;4934918;29;20114;-67
2022/02/24 13:56:28;;;;;;;1.10;1.00;;;5.50;99.90;;;;;;4934812;29;20690;-66
2022/02/24 13:58:58;;;;;;;1.67;1.10;;;5.40;99.90;;;;;;4936023;29;20028;-67
2022/02/24 14:01:27;;;;;;;0.50;0.50;;;4.90;99.90;;;;;;4915661;29;20440;-67
2022/02/24 14:03:54;;;;;;;1.45;0.65;;;4.60;99.90;;;;;;4914717;29;20075;-67
2022/02/24 14:06:25;;;;;;;1.15;0.70;;;4.30;99.90;;;;;;4915093;29;20381;-68
2022/02/24 14:08:59;;;;;;;;;;;4.30;99.90;;;;;;4916137;29;20029;-68
2022/02/24 14:11:30;;;;;;;0.98;0.63;;;4.10;99.90;;;;;;4915908;29;20421;-68
2022/02/24 14:13:58;;;;;;;3.17;0.88;;;4.00;99.90;;;;;;4916040;29;20032;-68